Airport View

Enter AWOS ICAO identifier for current METAR.

ex. KFNL

KNQA 212250Z 16006KT 10SM CLR 31/14 A3010

21 Sep 2019 23:25

Frequency: 118.925

Phone: 901-873-3630

Other Area AWOS: KM04 - KMEM - KAWM - KOLV

TAF AMD KMEM 212049Z 2121/2224 17011KT P6SM SCT060 SCT250 FM220100 17007KT P6SM FEW050 FEW250 FM221500 19013G19KT P6SM SCT050 SCT250 FM222300 20011KT P6SM SCT050 BKN250